Time;durP1;ratioP1;P1;durP2;ratioP2;P2;SDS_P1;SDS_P2;PMS_P1;PMS_P2;Temp;Humidity;BMP_temperature;BMP_pressure;BME280_temperature;BME280_humidity;BME280_pressure;Samples;Min_cycle;Max_cycle;Signal;HPM_P1;HPM_P2
2023/04/14 00:04:11;;;;;;;174.87;50.47;;;;;;;;;;10532100;28;20052;-79
2023/04/14 00:09:12;;;;;;;171.63;49.97;;;;;;;;;;10531840;28;20029;-79
2023/04/14 00:14:12;;;;;;;165.40;48.03;;;;;;;;;;10532878;28;20085;-79
2023/04/14 00:19:14;;;;;;;170.47;49.63;;;;;;;;;;10531919;28;20055;-79
2023/04/14 00:24:15;;;;;;;197.27;56.83;;;;;;;;;;10532147;28;20423;-80
2023/04/14 00:29:16;;;;;;;158.03;50.13;;;;;;;;;;10533038;28;20027;-81
2023/04/14 00:34:21;;;;;;;165.53;49.93;;;;;;;;;;10531099;28;20020;-79
2023/04/14 00:39:26;;;;;;;177.15;49.35;;;;;;;;;;10531720;28;20044;-79
2023/04/14 00:44:27;;;;;;;206.32;58.35;;;;;;;;;;10531139;28;20361;-79
2023/04/14 00:49:29;;;;;;;197.30;54.00;;;;;;;;;;10530852;28;20032;-80
2023/04/14 00:54:32;;;;;;;167.67;50.70;;;;;;;;;;10529846;28;20071;-80
2023/04/14 00:59:33;;;;;;;203.57;56.90;;;;;;;;;;10530324;28;20028;-80
2023/04/14 01:04:34;;;;;;;188.07;58.30;;;;;;;;;;10543354;28;20055;-79
2023/04/14 01:09:35;;;;;;;193.70;57.27;;;;;;;;;;10530140;28;20394;-81
2023/04/14 01:14:41;;;;;;;202.57;57.07;;;;;;;;;;10527823;28;20093;-79
2023/04/14 01:20:01;;;;;;;241.23;60.30;;;;;;;;;;10528550;28;20428;-79
2023/04/14 01:25:07;;;;;;;194.73;58.13;;;;;;;;;;10530262;28;20048;-79
2023/04/14 01:30:11;;;;;;;108.03;39.13;;;;;;;;;;10530518;28;20031;-80
2023/04/14 01:35:19;;;;;;;187.93;53.83;;;;;;;;;;10529481;28;20110;-81
2023/04/14 01:40:22;;;;;;;170.70;53.27;;;;;;;;;;10515929;28;20024;-79
2023/04/14 01:45:24;;;;;;;180.17;57.73;;;;;;;;;;10528626;28;20067;-79
2023/04/14 01:50:26;;;;;;;174.40;55.40;;;;;;;;;;10528866;28;20661;-79
2023/04/14 01:55:27;;;;;;;199.30;60.80;;;;;;;;;;10528537;28;20565;-79
2023/04/14 02:00:29;;;;;;;212.20;62.20;;;;;;;;;;10528895;28;20039;-79
2023/04/14 02:05:31;;;;;;;200.20;58.03;;;;;;;;;;10495988;28;20048;-81
2023/04/14 02:10:33;;;;;;;174.20;56.70;;;;;;;;;;10486582;28;20111;-78
2023/04/14 02:15:34;;;;;;;170.50;54.13;;;;;;;;;;10484174;28;20028;-81
2023/04/14 02:20:42;;;;;;;178.23;59.93;;;;;;;;;;10503677;28;20734;-79
2023/04/14 02:25:49;;;;;;;211.50;65.77;;;;;;;;;;10479178;28;20023;-79
2023/04/14 02:30:52;;;;;;;170.47;60.03;;;;;;;;;;10483398;28;20047;-79
2023/04/14 02:36:09;;;;;;;151.20;54.83;;;;;;;;;;10478822;28;20070;-79
2023/04/14 02:41:13;;;;;;;167.73;60.17;;;;;;;;;;10491073;28;20040;-80
2023/04/14 02:46:17;;;;;;;159.10;57.77;;;;;;;;;;10492015;28;20060;-79
2023/04/14 02:51:19;;;;;;;207.30;61.83;;;;;;;;;;10487476;28;20039;-79
2023/04/14 02:56:20;;;;;;;150.37;52.43;;;;;;;;;;10493401;28;20472;-79
2023/04/14 03:01:22;;;;;;;161.47;54.80;;;;;;;;;;10482256;28;20424;-80
2023/04/14 03:06:26;;;;;;;134.73;47.67;;;;;;;;;;10524882;28;20487;-79
2023/04/14 03:11:29;;;;;;;136.00;51.40;;;;;;;;;;10526493;28;20032;-82
2023/04/14 03:16:33;;;;;;;134.83;48.30;;;;;;;;;;10528673;28;20795;-80
2023/04/14 03:21:35;;;;;;;138.07;47.47;;;;;;;;;;10534031;28;20085;-81
2023/04/14 03:26:40;;;;;;;125.60;47.70;;;;;;;;;;10532790;28;20062;-79
2023/04/14 03:31:45;;;;;;;101.57;40.55;;;;;;;;;;10534479;28;20032;-81
2023/04/14 03:36:47;;;;;;;104.33;40.20;;;;;;;;;;10534214;28;20032;-83
2023/04/14 03:41:50;;;;;;;97.47;41.07;;;;;;;;;;10532657;28;20491;-81
2023/04/14 03:46:53;;;;;;;93.23;38.43;;;;;;;;;;10534333;28;20040;-80
2023/04/14 03:51:57;;;;;;;96.60;37.10;;;;;;;;;;10515642;28;20020;-79
2023/04/14 03:56:59;;;;;;;105.97;39.57;;;;;;;;;;10533148;28;20036;-81
2023/04/14 04:02:01;;;;;;;82.03;33.33;;;;;;;;;;10526763;28;20151;-80
2023/04/14 04:07:03;;;;;;;93.87;35.47;;;;;;;;;;10491573;28;20020;-80
2023/04/14 04:12:04;;;;;;;88.03;35.33;;;;;;;;;;10492445;28;20533;-82
2023/04/14 04:17:06;;;;;;;81.03;32.97;;;;;;;;;;10492473;28;20032;-82
2023/04/14 04:22:08;;;;;;;92.93;34.20;;;;;;;;;;10490498;28;20047;-79
2023/04/14 04:27:10;;;;;;;80.77;33.23;;;;;;;;;;10490435;28;20377;-80
2023/04/14 04:32:11;;;;;;;93.07;37.67;;;;;;;;;;10490815;28;20551;-80
2023/04/14 04:37:12;;;;;;;93.80;36.23;;;;;;;;;;10486019;28;20039;-81
2023/04/14 04:42:13;;;;;;;84.30;36.47;;;;;;;;;;10493474;28;20040;-81
2023/04/14 04:47:14;;;;;;;83.83;36.00;;;;;;;;;;10495309;28;20029;-79
2023/04/14 04:52:15;;;;;;;75.93;32.93;;;;;;;;;;10489479;28;20511;-81
2023/04/14 04:57:16;;;;;;;76.23;32.37;;;;;;;;;;10490143;28;20112;-82
2023/04/14 05:02:17;;;;;;;71.53;29.40;;;;;;;;;;10512029;28;20055;-81
2023/04/14 05:07:18;;;;;;;73.40;32.57;;;;;;;;;;10530446;28;20020;-80
2023/04/14 05:12:19;;;;;;;77.40;31.53;;;;;;;;;;10523915;28;20178;-80
2023/04/14 05:17:20;;;;;;;77.87;34.87;;;;;;;;;;10528923;28;20028;-80
2023/04/14 05:22:21;;;;;;;82.17;35.13;;;;;;;;;;10530524;28;20411;-80
2023/04/14 05:27:22;;;;;;;72.13;30.53;;;;;;;;;;10513633;28;20487;-79
2023/04/14 05:32:28;;;;;;;72.20;32.03;;;;;;;;;;10529795;28;20050;-82
2023/04/14 05:37:29;;;;;;;81.30;33.25;;;;;;;;;;10512731;28;20020;-82
2023/04/14 05:42:30;;;;;;;81.57;37.67;;;;;;;;;;10528805;28;20562;-80
2023/04/14 05:47:31;;;;;;;66.27;31.20;;;;;;;;;;10530154;28;20036;-80
2023/04/14 05:52:32;;;;;;;69.33;31.07;;;;;;;;;;10529084;28;20074;-81
2023/04/14 05:57:33;;;;;;;71.47;31.50;;;;;;;;;;10522657;28;20028;-80
2023/04/14 06:02:35;;;;;;;68.77;31.57;;;;;;;;;;10526540;28;20073;-80
2023/04/14 06:07:37;;;;;;;78.37;34.13;;;;;;;;;;10528911;28;20498;-81
2023/04/14 06:12:38;;;;;;;72.47;35.13;;;;;;;;;;10528601;28;20718;-79
2023/04/14 06:17:39;;;;;;;86.53;38.03;;;;;;;;;;10528076;28;20028;-79
2023/04/14 06:22:41;;;;;;;84.13;38.00;;;;;;;;;;10528423;28;20031;-81
2023/04/14 06:27:42;;;;;;;81.40;37.30;;;;;;;;;;10527529;28;20066;-80
2023/04/14 06:32:43;;;;;;;76.53;35.08;;;;;;;;;;10527446;28;20027;-81
2023/04/14 06:37:44;;;;;;;77.28;32.80;;;;;;;;;;10528451;28;20039;-80
2023/04/14 06:42:45;;;;;;;88.60;38.83;;;;;;;;;;10527547;28;20042;-81
2023/04/14 06:47:46;;;;;;;68.15;30.85;;;;;;;;;;10526872;28;20050;-81
2023/04/14 06:52:47;;;;;;;75.88;34.78;;;;;;;;;;10527479;28;20040;-82
2023/04/14 06:57:48;;;;;;;67.43;32.72;;;;;;;;;;10527243;28;20059;-80
2023/04/14 07:02:49;;;;;;;63.05;29.98;;;;;;;;;;10526638;28;20086;-80
2023/04/14 07:07:50;;;;;;;53.97;25.88;;;;;;;;;;10527202;28;20469;-80
2023/04/14 07:12:53;;;;;;;54.53;26.85;;;;;;;;;;10526712;28;20052;-81
2023/04/14 07:17:55;;;;;;;49.55;27.15;;;;;;;;;;10527023;28;20028;-80
2023/04/14 07:22:56;;;;;;;49.67;24.00;;;;;;;;;;10527082;28;20032;-81
2023/04/14 07:27:57;;;;;;;50.80;23.02;;;;;;;;;;10508525;28;20028;-81
2023/04/14 07:32:58;;;;;;;37.72;19.77;;;;;;;;;;10527275;28;20020;-81
2023/04/14 07:37:59;;;;;;;47.83;21.95;;;;;;;;;;10526566;28;20039;-81
2023/04/14 07:43:00;;;;;;;35.08;18.65;;;;;;;;;;10525699;28;20035;-79
2023/04/14 07:48:01;;;;;;;35.53;18.60;;;;;;;;;;10526798;28;20036;-80
2023/04/14 07:53:02;;;;;;;36.58;18.60;;;;;;;;;;10526404;28;20039;-80
2023/04/14 07:58:03;;;;;;;29.15;16.67;;;;;;;;;;10525907;28;20024;-82
2023/04/14 08:03:04;;;;;;;32.60;16.90;;;;;;;;;;10528749;28;20107;-79
2023/04/14 08:08:05;;;;;;;31.00;16.10;;;;;;;;;;10533133;28;20024;-79
2023/04/14 08:13:06;;;;;;;31.30;15.27;;;;;;;;;;10533150;28;20032;-80
2023/04/14 08:18:07;;;;;;;28.52;16.20;;;;;;;;;;10532795;28;20378;-80
2023/04/14 08:23:10;;;;;;;25.00;14.02;;;;;;;;;;10531977;28;20143;-80
2023/04/14 08:28:11;;;;;;;25.00;12.98;;;;;;;;;;10533106;28;20424;-81
2023/04/14 08:33:12;;;;;;;25.23;13.60;;;;;;;;;;10532211;28;20021;-81
2023/04/14 08:38:13;;;;;;;21.83;11.35;;;;;;;;;;10514521;28;20391;-80
2023/04/14 08:43:17;;;;;;;19.50;10.27;;;;;;;;;;10531660;28;20040;-79
2023/04/14 08:48:20;;;;;;;24.48;11.27;;;;;;;;;;10531240;28;20047;-79
2023/04/14 08:53:23;;;;;;;14.10;8.75;;;;;;;;;;10509819;28;20079;-83
2023/04/14 08:58:26;;;;;;;19.88;10.13;;;;;;;;;;10530257;28;20020;-80
2023/04/14 09:03:27;;;;;;;16.95;9.27;;;;;;;;;;10517601;28;20059;-80
2023/04/14 09:08:32;;;;;;;21.48;10.30;;;;;;;;;;10488589;28;20031;-81
2023/04/14 09:13:34;;;;;;;10.07;6.53;;;;;;;;;;10500497;28;20455;-81
2023/04/14 09:18:35;;;;;;;13.88;7.70;;;;;;;;;;10494020;28;20716;-79
2023/04/14 09:23:36;;;;;;;27.05;12.75;;;;;;;;;;10498516;28;20036;-79
2023/04/14 09:28:37;;;;;;;21.38;10.35;;;;;;;;;;10507393;28;20032;-80
2023/04/14 09:33:39;;;;;;;23.60;12.93;;;;;;;;;;10488879;28;20025;-79
2023/04/14 09:38:40;;;;;;;16.92;8.77;;;;;;;;;;10495869;28;20120;-79
2023/04/14 09:43:41;;;;;;;21.50;11.85;;;;;;;;;;10512119;28;20048;-79
2023/04/14 09:48:55;;;;;;;19.80;10.10;;;;;;;;;;10488436;28;20029;-80
2023/04/14 09:54:01;;;;;;;20.60;9.80;;;;;;;;;;10489088;28;20414;-80
2023/04/14 09:59:02;;;;;;;29.55;14.52;;;;;;;;;;10488942;28;20530;-79
2023/04/14 10:04:03;;;;;;;25.17;12.88;;;;;;;;;;10494279;28;20117;-80
2023/04/14 10:09:04;;;;;;;15.38;8.80;;;;;;;;;;10485741;28;20093;-80
2023/04/14 10:14:06;;;;;;;12.80;7.60;;;;;;;;;;10485474;28;20020;-79
2023/04/14 10:19:07;;;;;;;15.23;8.60;;;;;;;;;;10473901;28;20155;-78
2023/04/14 10:24:08;;;;;;;18.88;11.40;;;;;;;;;;10483353;28;20110;-79
2023/04/14 10:29:09;;;;;;;17.92;10.13;;;;;;;;;;10486480;28;20047;-81
2023/04/14 10:34:11;;;;;;;13.15;9.60;;;;;;;;;;10485623;28;20032;-80
2023/04/14 10:39:12;;;;;;;13.98;9.02;;;;;;;;;;10485708;28;20044;-80
2023/04/14 10:44:31;;;;;;;11.82;7.97;;;;;;;;;;10485184;28;20055;-80
2023/04/14 10:49:38;;;;;;;14.90;9.07;;;;;;;;;;10485210;28;20040;-80
2023/04/14 10:54:48;;;;;;;14.10;7.68;;;;;;;;;;10485278;28;20028;-80
2023/04/14 10:59:53;;;;;;;9.52;6.18;;;;;;;;;;10486000;28;20028;-81
2023/04/14 11:04:57;;;;;;;10.13;7.25;;;;;;;;;;10515372;28;20472;-81
2023/04/14 11:10:21;;;;;;;8.38;5.28;;;;;;;;;;10500548;28;20085;-79
2023/04/14 11:15:22;;;;;;;9.10;6.70;;;;;;;;;;10502389;28;20043;-79
2023/04/14 11:20:24;;;;;;;5.95;4.68;;;;;;;;;;10526878;28;20084;-79
2023/04/14 11:25:25;;;;;;;5.75;3.90;;;;;;;;;;10526040;28;20382;-80
2023/04/14 11:30:26;;;;;;;8.50;6.07;;;;;;;;;;10525887;28;20150;-79
2023/04/14 11:35:28;;;;;;;20.48;10.13;;;;;;;;;;10522862;28;20039;-82
2023/04/14 11:40:32;;;;;;;10.07;5.50;;;;;;;;;;10516308;28;20032;-79
2023/04/14 11:45:35;;;;;;;8.45;4.85;;;;;;;;;;10533233;28;20051;-78
2023/04/14 11:50:37;;;;;;;9.55;5.95;;;;;;;;;;10533053;28;20039;-79
2023/04/14 11:55:43;;;;;;;9.30;4.63;;;;;;;;;;10532897;28;20026;-78
2023/04/14 12:00:46;;;;;;;8.57;4.85;;;;;;;;;;10533912;28;20195;-79
2023/04/14 12:05:47;;;;;;;8.70;4.65;;;;;;;;;;10494886;28;20060;-78
2023/04/14 12:10:50;;;;;;;10.18;4.95;;;;;;;;;;10490682;28;20028;-79
2023/04/14 12:15:51;;;;;;;8.52;5.20;;;;;;;;;;10490550;28;20102;-79
2023/04/14 12:20:53;;;;;;;8.63;5.18;;;;;;;;;;10490984;28;20071;-80
2023/04/14 12:25:56;;;;;;;10.00;5.32;;;;;;;;;;10489952;28;20045;-78
2023/04/14 12:31:02;;;;;;;25.77;11.15;;;;;;;;;;10490831;28;20024;-80
2023/04/14 12:36:05;;;;;;;29.63;14.00;;;;;;;;;;10488500;28;20082;-81
2023/04/14 12:41:10;;;;;;;27.35;12.57;;;;;;;;;;10489170;28;20079;-79
2023/04/14 12:46:15;;;;;;;21.60;10.80;;;;;;;;;;10486054;28;20090;-80
2023/04/14 12:51:19;;;;;;;20.00;8.23;;;;;;;;;;10489962;28;20928;-79
2023/04/14 12:56:25;;;;;;;14.55;6.10;;;;;;;;;;10481861;28;20116;-80
2023/04/14 13:01:26;;;;;;;10.90;6.38;;;;;;;;;;10491294;28;20820;-78
2023/04/14 13:06:27;;;;;;;6.35;4.25;;;;;;;;;;10530368;28;20511;-80
2023/04/14 13:11:30;;;;;;;7.10;5.35;;;;;;;;;;10530335;28;20172;-78
2023/04/14 13:16:32;;;;;;;8.18;5.00;;;;;;;;;;10530300;28;20379;-78
2023/04/14 13:21:33;;;;;;;7.97;5.55;;;;;;;;;;10530732;28;20024;-78
2023/04/14 13:26:36;;;;;;;7.78;5.28;;;;;;;;;;10530902;28;20036;-79
2023/04/14 13:31:44;;;;;;;6.03;4.50;;;;;;;;;;10528136;28;20022;-82
2023/04/14 13:36:45;;;;;;;9.52;4.70;;;;;;;;;;10529925;28;20518;-79
2023/04/14 13:41:48;;;;;;;7.25;4.90;;;;;;;;;;10530247;28;20032;-80
2023/04/14 13:46:52;;;;;;;6.28;4.80;;;;;;;;;;10528166;28;20032;-80
2023/04/14 13:51:53;;;;;;;7.97;4.75;;;;;;;;;;10528039;28;20056;-79
2023/04/14 13:56:56;;;;;;;11.63;6.72;;;;;;;;;;10527392;28;20164;-78
2023/04/14 14:01:57;;;;;;;9.45;6.10;;;;;;;;;;10527296;28;20130;-78
2023/04/14 14:06:59;;;;;;;6.68;5.13;;;;;;;;;;10528693;28;20054;-78
2023/04/14 14:12:01;;;;;;;10.75;5.53;;;;;;;;;;10527190;28;20371;-79
2023/04/14 14:17:02;;;;;;;10.43;5.10;;;;;;;;;;10541944;28;20720;-79
2023/04/14 14:22:03;;;;;;;7.68;4.82;;;;;;;;;;10527474;28;20036;-79
2023/04/14 14:27:06;;;;;;;12.00;4.95;;;;;;;;;;10526882;28;20032;-78
2023/04/14 14:32:07;;;;;;;9.50;5.47;;;;;;;;;;10527334;28;20467;-78
2023/04/14 14:37:08;;;;;;;8.30;5.25;;;;;;;;;;10528215;28;20425;-78
2023/04/14 14:42:09;;;;;;;7.97;5.15;;;;;;;;;;10527079;28;20376;-78
2023/04/14 14:47:10;;;;;;;11.43;4.93;;;;;;;;;;10532113;28;20042;-79
2023/04/14 14:52:11;;;;;;;17.98;13.70;;;;;;;;;;10525648;28;20028;-78
2023/04/14 14:57:12;;;;;;;21.05;13.80;;;;;;;;;;10525890;28;20032;-80
2023/04/14 15:02:13;;;;;;;13.77;7.88;;;;;;;;;;10528112;28;20048;-78
2023/04/14 15:07:14;;;;;;;30.35;16.02;;;;;;;;;;10526214;28;20039;-78
2023/04/14 15:12:19;;;;;;;21.33;12.02;;;;;;;;;;10526558;28;20032;-79
2023/04/14 15:17:22;;;;;;;23.23;16.15;;;;;;;;;;10534549;28;20048;-78
2023/04/14 15:22:23;;;;;;;14.40;6.97;;;;;;;;;;10535084;28;20074;-78
2023/04/14 15:27:24;;;;;;;11.38;6.78;;;;;;;;;;10534920;28;20574;-78
2023/04/14 15:32:26;;;;;;;13.88;8.15;;;;;;;;;;10530043;28;20847;-79
2023/04/14 15:37:27;;;;;;;19.05;12.40;;;;;;;;;;10520956;28;20034;-78
2023/04/14 15:42:28;;;;;;;46.15;25.73;;;;;;;;;;10534632;28;20620;-78
2023/04/14 15:47:29;;;;;;;24.88;16.67;;;;;;;;;;10525729;28;20542;-79
2023/04/14 15:52:31;;;;;;;309.63;198.27;;;;;;;;;;10531376;28;20032;-79
2023/04/14 15:57:32;;;;;;;464.85;378.30;;;;;;;;;;10533235;28;20036;-78
2023/04/14 16:02:36;;;;;;;676.47;542.92;;;;;;;;;;10533112;28;20044;-79
2023/04/14 16:07:38;;;;;;;301.88;224.23;;;;;;;;;;10531449;28;20040;-78
2023/04/14 16:12:39;;;;;;;185.75;133.23;;;;;;;;;;10532859;28;20594;-78
2023/04/14 16:17:42;;;;;;;83.72;66.00;;;;;;;;;;10520656;28;20425;-79
2023/04/14 16:22:48;;;;;;;118.78;70.78;;;;;;;;;;10523125;28;20028;-78
2023/04/14 16:27:52;;;;;;;80.80;54.33;;;;;;;;;;10527828;28;20021;-78
2023/04/14 16:32:53;;;;;;;159.55;103.63;;;;;;;;;;10532116;28;20027;-77
2023/04/14 16:37:54;;;;;;;130.13;89.18;;;;;;;;;;10532840;28;20016;-81
2023/04/14 16:42:55;;;;;;;95.85;66.57;;;;;;;;;;10532159;28;20055;-79
2023/04/14 16:47:56;;;;;;;37.67;22.63;;;;;;;;;;10531280;28;20038;-78
2023/04/14 16:52:57;;;;;;;37.35;21.35;;;;;;;;;;10531122;28;20036;-78
2023/04/14 16:57:59;;;;;;;41.20;24.30;;;;;;;;;;10530312;28;20055;-79
2023/04/14 17:03:00;;;;;;;25.45;13.88;;;;;;;;;;10531691;28;20055;-79
2023/04/14 17:08:02;;;;;;;38.53;21.50;;;;;;;;;;10530866;28;20034;-78
2023/04/14 17:13:03;;;;;;;39.78;24.02;;;;;;;;;;10530742;28;20398;-79
2023/04/14 17:18:04;;;;;;;70.20;32.95;;;;;;;;;;10530749;28;20034;-78
2023/04/14 17:23:06;;;;;;;13.52;8.60;;;;;;;;;;10512478;28;20047;-79
2023/04/14 17:28:09;;;;;;;14.73;7.90;;;;;;;;;;10529735;28;20027;-80
2023/04/14 17:33:11;;;;;;;42.45;23.17;;;;;;;;;;10529660;28;20043;-79
2023/04/14 17:38:12;;;;;;;16.17;8.95;;;;;;;;;;10528783;28;20089;-77
2023/04/14 17:43:13;;;;;;;15.80;9.48;;;;;;;;;;10528533;28;20490;-78
2023/04/14 17:48:14;;;;;;;12.98;7.32;;;;;;;;;;10529169;28;20581;-78
2023/04/14 17:53:16;;;;;;;14.15;8.27;;;;;;;;;;10528509;28;20036;-78
2023/04/14 17:58:18;;;;;;;11.05;7.30;;;;;;;;;;10536871;28;20032;-78
2023/04/14 18:03:19;;;;;;;24.98;13.60;;;;;;;;;;10528352;28;20052;-79
2023/04/14 18:08:20;;;;;;;26.13;13.25;;;;;;;;;;10527835;28;20355;-78
2023/04/14 18:13:21;;;;;;;17.95;9.23;;;;;;;;;;10528929;28;20570;-78
2023/04/14 18:18:22;;;;;;;49.95;23.00;;;;;;;;;;10527179;28;20024;-78
2023/04/14 18:23:23;;;;;;;22.95;13.18;;;;;;;;;;10526857;28;20036;-78
2023/04/14 18:28:24;;;;;;;27.23;14.50;;;;;;;;;;10528271;28;20509;-78
2023/04/14 18:33:28;;;;;;;15.48;9.05;;;;;;;;;;10540686;28;20114;-80
2023/04/14 18:38:29;;;;;;;16.92;9.68;;;;;;;;;;10527231;28;20069;-78
2023/04/14 18:43:31;;;;;;;17.08;10.38;;;;;;;;;;10522057;28;20040;-79
2023/04/14 18:48:32;;;;;;;21.55;10.48;;;;;;;;;;10526506;28;20124;-78
2023/04/14 18:53:33;;;;;;;35.47;18.98;;;;;;;;;;10526586;28;20487;-81
2023/04/14 18:58:34;;;;;;;18.80;10.85;;;;;;;;;;10526992;28;20024;-79
2023/04/14 19:03:36;;;;;;;21.20;12.05;;;;;;;;;;10526839;28;20059;-77
2023/04/14 19:08:39;;;;;;;20.40;13.02;;;;;;;;;;10526355;28;20115;-77
2023/04/14 19:13:41;;;;;;;21.75;11.35;;;;;;;;;;10527074;28;20374;-77
2023/04/14 19:18:43;;;;;;;40.03;21.67;;;;;;;;;;10525753;28;20020;-79
2023/04/14 19:23:47;;;;;;;15.48;10.57;;;;;;;;;;10523312;28;20161;-77
2023/04/14 19:28:52;;;;;;;18.52;10.82;;;;;;;;;;10525900;28;20024;-78
2023/04/14 19:33:56;;;;;;;16.77;10.88;;;;;;;;;;10525857;28;20538;-78
2023/04/14 19:38:57;;;;;;;15.52;10.32;;;;;;;;;;10520014;28;20519;-78
2023/04/14 19:43:58;;;;;;;16.35;11.10;;;;;;;;;;10513958;28;20071;-80
2023/04/14 19:49:00;;;;;;;15.07;10.40;;;;;;;;;;10525803;28;20027;-79
2023/04/14 19:54:01;;;;;;;14.45;10.68;;;;;;;;;;10525983;28;20418;-78
2023/04/14 19:59:02;;;;;;;16.88;11.10;;;;;;;;;;10527341;28;20566;-80
2023/04/14 20:04:03;;;;;;;16.33;10.65;;;;;;;;;;10531139;28;20051;-78
2023/04/14 20:09:05;;;;;;;15.10;10.75;;;;;;;;;;10533006;28;20060;-77
2023/04/14 20:14:13;;;;;;;15.80;10.25;;;;;;;;;;10532421;28;20414;-78
2023/04/14 20:19:17;;;;;;;16.52;10.05;;;;;;;;;;10532052;28;20047;-78
2023/04/14 20:24:18;;;;;;;16.08;10.02;;;;;;;;;;10532289;28;20044;-78
2023/04/14 20:29:19;;;;;;;13.95;9.75;;;;;;;;;;10536856;28;20138;-79
2023/04/14 20:34:20;;;;;;;15.60;9.80;;;;;;;;;;10531212;28;20039;-78
2023/04/14 20:39:21;;;;;;;16.65;11.05;;;;;;;;;;10530842;28;20044;-78
2023/04/14 20:44:23;;;;;;;18.95;10.70;;;;;;;;;;10532017;28;20044;-78
2023/04/14 20:49:24;;;;;;;15.40;10.52;;;;;;;;;;10532109;28;20107;-78
2023/04/14 20:54:29;;;;;;;15.10;9.82;;;;;;;;;;10531884;28;20032;-78
2023/04/14 20:59:30;;;;;;;17.13;11.10;;;;;;;;;;10531392;28;20463;-78
2023/04/14 21:04:32;;;;;;;17.33;10.20;;;;;;;;;;10531757;28;20052;-79
2023/04/14 21:09:33;;;;;;;18.27;11.23;;;;;;;;;;10529445;28;20621;-78
2023/04/14 21:14:35;;;;;;;16.77;10.65;;;;;;;;;;10529517;28;20028;-79
2023/04/14 21:19:36;;;;;;;15.10;10.85;;;;;;;;;;10530711;28;20243;-78
2023/04/14 21:24:38;;;;;;;22.25;12.00;;;;;;;;;;10528810;28;20043;-81
2023/04/14 21:29:39;;;;;;;18.25;11.00;;;;;;;;;;10528571;28;20425;-77
2023/04/14 21:34:40;;;;;;;15.82;9.45;;;;;;;;;;10528509;28;20036;-78
2023/04/14 21:39:41;;;;;;;12.10;7.88;;;;;;;;;;10528384;28;20032;-79
2023/04/14 21:44:42;;;;;;;14.27;7.97;;;;;;;;;;10524753;28;20044;-78
2023/04/14 21:49:43;;;;;;;13.15;7.75;;;;;;;;;;10527936;28;20512;-78
2023/04/14 21:54:46;;;;;;;10.50;6.85;;;;;;;;;;10527660;28;20028;-79
2023/04/14 21:59:48;;;;;;;13.75;7.35;;;;;;;;;;10526102;28;20032;-78
2023/04/14 22:04:53;;;;;;;9.05;6.07;;;;;;;;;;10517389;28;20051;-79
2023/04/14 22:09:54;;;;;;;14.20;8.30;;;;;;;;;;10527920;28;20036;-78
2023/04/14 22:15:00;;;;;;;17.63;10.02;;;;;;;;;;10526475;28;20035;-78
2023/04/14 22:20:01;;;;;;;20.55;11.60;;;;;;;;;;10526211;28;20046;-78
2023/04/14 22:25:02;;;;;;;22.27;12.13;;;;;;;;;;10527734;28;20119;-80
2023/04/14 22:30:04;;;;;;;19.65;10.20;;;;;;;;;;10527207;28;20031;-79
2023/04/14 22:35:05;;;;;;;19.50;11.07;;;;;;;;;;10525971;28;20479;-78
2023/04/14 22:40:06;;;;;;;15.73;9.35;;;;;;;;;;10523535;28;20685;-80
2023/04/14 22:45:07;;;;;;;14.15;8.93;;;;;;;;;;10523135;28;20044;-79
2023/04/14 22:50:08;;;;;;;21.38;10.00;;;;;;;;;;10526181;28;20055;-78
2023/04/14 22:55:10;;;;;;;18.88;10.20;;;;;;;;;;10526454;28;20027;-78
2023/04/14 23:00:12;;;;;;;20.90;10.88;;;;;;;;;;10526131;28;20554;-78
2023/04/14 23:05:13;;;;;;;17.95;8.82;;;;;;;;;;10493207;28;20718;-78
2023/04/14 23:10:14;;;;;;;15.73;8.80;;;;;;;;;;10491232;28;20032;-78
2023/04/14 23:15:16;;;;;;;15.98;9.52;;;;;;;;;;10466715;28;20029;-78
2023/04/14 23:20:16;;;;;;;16.27;9.13;;;;;;;;;;10487084;28;20181;-78
2023/04/14 23:25:22;;;;;;;17.60;10.27;;;;;;;;;;10485029;28;20097;-79
2023/04/14 23:30:26;;;;;;;19.40;10.10;;;;;;;;;;10484461;28;20051;-78
2023/04/14 23:35:27;;;;;;;17.98;10.00;;;;;;;;;;10490256;28;20019;-78
2023/04/14 23:40:30;;;;;;;18.05;10.70;;;;;;;;;;10502778;28;20546;-78
2023/04/14 23:45:36;;;;;;;20.25;10.20;;;;;;;;;;10486319;28;20443;-78
2023/04/14 23:50:39;;;;;;;18.77;11.38;;;;;;;;;;10501218;28;20032;-78
2023/04/14 23:55:44;;;;;;;21.23;11.35;;;;;;;;;;10493339;28;20031;-79
